Time;durP1;ratioP1;P1;durP2;ratioP2;P2;SDS_P1;SDS_P2;PMS_P1;PMS_P2;Temp;Humidity;BMP_temperature;BMP_pressure;BME280_temperature;BME280_humidity;BME280_pressure;Samples;Min_cycle;Max_cycle;Signal;HPM_P1;HPM_P2
2023/01/03 00:01:15;;;;;;;0.10;0.10;;;;;;;4.12;100.00;100958.22;5104391;28;20107;-69
2023/01/03 00:03:41;;;;;;;0.40;0.20;;;;;;;4.29;100.00;100967.19;5116498;28;20066;-68
2023/01/03 00:06:31;;;;;;;0.13;0.10;;;;;;;4.30;100.00;100976.03;5106480;28;20070;-68
2023/01/03 00:08:58;;;;;;;0.80;0.20;;;;;;;4.29;100.00;100979.69;5106340;28;20035;-68
2023/01/03 00:14:14;;;;;;;0.20;0.10;;;;;;;4.12;100.00;100998.19;5108955;28;20063;-68
2023/01/03 00:16:40;;;;;;;2.67;0.10;;;;;;;4.26;100.00;101006.63;5109397;28;20407;-68
2023/01/03 00:19:06;;;;;;;0.15;0.10;;;;;;;4.36;100.00;101018.03;5116252;28;20039;-67
2023/01/03 00:21:32;;;;;;;0.10;0.10;;;;;;;3.86;100.00;101034.53;5102636;28;20031;-68
2023/01/03 00:23:57;;;;;;;0.40;0.20;;;;;;;4.13;100.00;101050.44;5114172;28;20072;-68
2023/01/03 00:26:23;;;;;;;0.13;0.03;;;;;;;3.97;100.00;101051.13;5109397;28;20474;-67
2023/01/03 00:28:48;;;;;;;0.55;0.15;;;;;;;3.83;100.00;101054.28;5089635;28;20085;-67
2023/01/03 00:31:13;;;;;;;1.42;0.60;;;;;;;3.88;100.00;101030.72;5117093;28;20036;-68
2023/01/03 00:33:39;;;;;;;0.20;0.10;;;;;;;3.79;100.00;101060.91;5119393;27;20027;-68
2023/01/03 00:36:07;;;;;;;1.23;0.20;;;;;;;3.92;100.00;101065.88;5112063;28;20110;-67
2023/01/03 00:38:34;;;;;;;0.73;0.20;;;;;;;4.19;100.00;101076.47;5110837;28;20023;-68
2023/01/03 00:41:18;;;;;;;0.38;0.20;;;;;;;4.26;100.00;101075.88;5105483;28;20489;-67
2023/01/03 00:43:46;;;;;;;0.20;0.20;;;;;;;4.11;100.00;101079.06;5086737;28;20053;-67
2023/01/03 00:46:13;;;;;;;2.35;0.40;;;;;;;4.00;100.00;101081.94;5110840;28;20024;-67
2023/01/03 00:48:39;;;;;;;2.90;0.20;;;;;;;3.91;100.00;101098.81;5109490;27;20031;-67
2023/01/03 00:51:09;;;;;;;3.10;0.30;;;;;;;3.59;100.00;101094.75;5103331;28;20031;-67
2023/01/03 00:53:36;;;;;;;1.80;0.25;;;;;;;3.51;100.00;101100.81;5116590;28;20036;-67
2023/01/03 00:56:07;;;;;;;0.65;0.20;;;;;;;3.65;100.00;101110.13;5105773;28;20028;-67
2023/01/03 00:58:33;;;;;;;0.43;0.10;;;;;;;3.56;100.00;101126.13;5107655;28;20028;-67
2023/01/03 01:01:16;;;;;;;0.55;0.10;;;;;;;3.46;100.00;101123.50;5114312;28;20024;-67
2023/01/03 01:03:45;;;;;;;0.38;0.15;;;;;;;3.76;100.00;101125.91;5085555;28;20379;-67
2023/01/03 01:06:16;;;;;;;1.60;0.20;;;;;;;3.34;100.00;101085.59;5113078;27;20071;-68
2023/01/03 01:08:43;;;;;;;2.85;0.25;;;;;;;3.67;100.00;101118.78;5111929;28;20436;-67
2023/01/03 01:11:09;;;;;;;0.73;0.10;;;;;;;3.76;100.00;101139.22;5104824;28;20111;-68
2023/01/03 01:13:35;;;;;;;1.35;0.30;;;;;;;3.40;100.00;101111.63;5116133;28;20038;-67
2023/01/03 01:16:07;;;;;;;0.30;0.10;;;;;;;3.46;100.00;101148.28;5105979;28;20028;-67
2023/01/03 01:18:33;;;;;;;0.43;0.20;;;;;;;3.46;100.00;101158.09;5107658;28;20502;-67
2023/01/03 01:21:02;;;;;;;0.30;0.17;;;;;;;3.50;100.00;101159.47;5113987;28;20046;-68
2023/01/03 01:23:27;;;;;;;0.68;0.22;;;;;;;3.90;100.00;101171.66;5103168;28;20028;-67
2023/01/03 01:25:53;;;;;;;0.52;0.30;;;;;;;3.50;100.00;101180.75;5114957;28;20031;-67
2023/01/03 01:28:18;;;;;;;0.40;0.20;;;;;;;3.59;100.00;101185.22;5108135;28;20056;-67
2023/01/03 01:30:43;;;;;;;1.45;0.30;;;;;;;3.43;100.00;101161.03;5107015;28;20064;-67
2023/01/03 01:33:09;;;;;;;1.00;0.30;;;;;;;3.51;100.00;101188.63;5115887;28;20038;-67
2023/01/03 01:35:34;;;;;;;0.52;0.30;;;;;;;3.28;100.00;101177.47;5102937;28;20028;-67
2023/01/03 01:37:59;;;;;;;1.17;0.38;;;;;;;3.36;100.00;101166.09;5113786;28;20130;-68
2023/01/03 01:40:26;;;;;;;1.40;0.40;;;;;;;3.31;100.00;101205.56;5107947;28;20037;-67
2023/01/03 01:45:37;;;;;;;1.13;0.50;;;;;;;3.00;100.00;101189.78;5114981;28;20046;-67
2023/01/03 01:48:10;;;;;;;0.95;0.25;;;;;;;3.22;100.00;101220.56;5105278;28;20030;-66
2023/01/03 01:50:51;;;;;;;0.88;0.40;;;;;;;3.22;100.00;101220.56;5108164;28;20054;-67
2023/01/03 01:53:21;;;;;;;0.30;0.30;;;;;;;3.43;100.00;101224.88;5115911;28;20023;-68
2023/01/03 01:55:57;;;;;;;1.33;0.57;;;;;;;3.49;100.00;101219.84;5086012;28;20505;-66
2023/01/03 01:58:27;;;;;;;1.60;0.70;;;;;;;3.40;100.00;101236.66;5110469;28;20031;-66
2023/01/03 02:00:54;;;;;;;2.03;0.68;;;;;;;3.49;100.00;101245.59;5112262;28;20026;-67
2023/01/03 02:03:19;;;;;;;2.13;0.88;;;;;;;3.45;100.00;101249.53;5100497;28;20054;-67
2023/01/03 02:05:49;;;;;;;2.55;1.00;;;;;;;3.38;100.00;101261.69;5113280;28;20036;-67
2023/01/03 02:08:15;;;;;;;2.22;1.10;;;;;;;3.71;100.00;101271.06;5105805;28;20092;-66
2023/01/03 02:10:50;;;;;;;2.35;1.15;;;;;;;3.86;100.00;101277.59;5105107;28;20498;-66
2023/01/03 02:13:40;;;;;;;1.70;1.10;;;;;;;3.56;100.00;101275.97;5114399;28;20150;-66
2023/01/03 02:16:14;;;;;;;2.85;1.08;;;;;;;3.77;100.00;101278.47;5089689;28;20028;-67
2023/01/03 02:19:01;;;;;;;3.63;1.20;;;;;;;3.30;100.00;101287.19;5106628;28;20075;-66
2023/01/03 02:21:59;;;;;;;2.95;0.98;;;;;;;3.53;100.00;101281.59;5113249;28;20035;-66
2023/01/03 02:24:43;;;;;;;2.47;0.77;;;;;;;3.56;100.00;101294.59;5106977;28;20023;-66
2023/01/03 02:27:11;;;;;;;1.80;0.80;;;;;;;3.41;100.00;101307.50;5102425;28;20028;-66
2023/01/03 02:30:04;;;;;;;0.95;0.75;;;;;;;3.71;100.00;101301.19;5113663;28;20030;-66
2023/01/03 02:32:51;;;;;;;1.30;0.90;;;;;;;3.73;100.00;101307.19;5107459;28;20035;-66
2023/01/03 02:35:23;;;;;;;1.80;0.85;;;;;;;3.75;99.40;101307.91;5101436;28;20436;-66
2023/01/03 02:38:02;;;;;;;2.30;0.90;;;;;;;3.84;99.18;101314.19;5085658;28;20122;-66
2023/01/03 02:40:56;;;;;;;1.27;0.95;;;;;;;3.80;99.29;101314.59;5108182;28;20027;-66
2023/01/03 02:43:28;;;;;;;2.30;0.93;;;;;;;3.73;99.84;101319.66;5074603;28;20487;-66
2023/01/03 02:46:21;;;;;;;2.95;0.80;;;;;;;3.91;99.55;101317.13;5075050;28;20040;-68
2023/01/03 02:49:26;;;;;;;1.10;0.60;;;;;;;3.96;98.81;101318.34;5073833;28;20466;-66
2023/01/03 02:52:02;;;;;;;1.70;0.68;;;;;;;4.01;98.21;101323.28;5075037;28;20032;-66
2023/01/03 02:54:38;;;;;;;1.13;0.70;;;;;;;3.89;98.14;101295.13;5053011;28;20427;-66
2023/01/03 02:57:09;;;;;;;1.95;0.63;;;;;;;3.98;98.55;101328.88;5070399;28;20036;-68
2023/01/03 02:59:45;;;;;;;1.20;0.52;;;;;;;3.71;99.28;101337.59;5074617;28;20392;-66
2023/01/03 03:02:13;;;;;;;1.27;0.40;;;;;;;3.85;99.14;101342.50;5076003;28;20052;-67
2023/01/03 03:04:41;;;;;;;1.33;0.40;;;;;;;3.94;99.06;101338.97;5059549;28;20052;-65
2023/01/03 03:07:23;;;;;;;0.82;0.30;;;;;;;3.79;98.71;101304.94;5076370;28;20032;-65
2023/01/03 03:15:24;;;;;;;0.60;0.40;;;;;;;3.86;99.70;101365.44;5112822;28;20042;-67
2023/01/03 03:17:56;;;;;;;1.00;0.47;;;;;;;4.08;99.18;101361.66;5102577;28;20043;-65
2023/01/03 03:26:09;;;;;;;1.50;0.47;;;;;;;4.21;98.85;101372.84;5087771;28;20575;-67
2023/01/03 03:28:38;;;;;;;0.57;0.38;;;;;;;3.99;99.24;101351.84;5107853;28;20028;-65
2023/01/03 03:31:34;;;;;;;3.38;0.70;;;;;;;4.20;99.78;101383.63;5111865;28;20039;-65
2023/01/03 03:34:05;;;;;;;2.20;0.65;;;;;;;4.17;99.68;101382.09;5081274;28;20035;-66
2023/01/03 03:36:39;;;;;;;1.33;0.60;;;;;;;4.32;98.79;101389.63;5108389;28;20426;-66
2023/01/03 03:44:59;;;;;;;1.58;0.75;;;;;;;4.13;98.15;101346.06;5112730;28;20430;-66
2023/01/03 03:44:59;;;;;;;3.92;0.60;;;;;;;4.18;98.65;101399.75;5107795;28;20556;-66
2023/01/03 03:47:36;;;;;;;2.25;0.52;;;;;;;4.14;99.81;101402.84;5116538;28;20450;-66
2023/01/03 03:50:35;;;;;;;1.85;0.63;;;;;;;4.15;99.19;101416.03;5105157;28;20030;-66
2023/01/03 03:53:07;;;;;;;2.17;0.63;;;;;;;4.22;99.37;101414.47;5101994;28;20091;-66
2023/01/03 03:55:46;;;;;;;0.95;0.50;;;;;;;4.00;100.00;101380.97;5115863;28;20039;-66
2023/01/03 03:58:34;;;;;;;0.70;0.40;;;;;;;4.33;99.07;101409.97;5106780;28;20485;-67
2023/01/03 04:01:01;;;;;;;2.28;0.70;;;;;;;4.21;98.53;101366.69;5065142;28;20040;-66
2023/01/03 04:03:29;;;;;;;1.83;0.52;;;;;;;4.46;98.48;101418.47;5079736;28;20094;-66
2023/01/03 04:06:03;;;;;;;0.60;0.50;;;;;;;4.47;98.73;101420.19;5085007;28;20042;-66
2023/01/03 04:08:29;;;;;;;2.75;0.60;;;;;;;4.40;98.13;101389.75;5089452;28;20037;-67
2023/01/03 04:11:04;;;;;;;1.13;0.68;;;;;;;4.30;99.37;101426.22;5094009;28;20040;-66
2023/01/03 04:13:34;;;;;;;4.13;0.70;;;;;;;4.37;99.96;101436.19;5086912;28;20047;-66
2023/01/03 04:15:59;;;;;;;1.83;0.60;;;;;;;4.51;99.19;101437.56;5098005;28;20417;-66
2023/01/03 04:18:25;;;;;;;1.00;0.40;;;;;;;4.47;98.40;101433.50;5092388;28;20055;-66
2023/01/03 04:20:50;;;;;;;0.98;0.40;;;;;;;4.33;99.53;101457.91;5074683;28;20048;-66
2023/01/03 04:23:16;;;;;;;0.80;0.50;;;;;;;4.29;99.61;101462.69;5099380;28;20036;-66
2023/01/03 04:25:42;;;;;;;3.47;0.60;;;;;;;4.38;99.40;101477.00;5069261;28;20498;-66
2023/01/03 04:28:07;;;;;;;1.52;0.50;;;;;;;4.37;99.13;101478.81;5080665;28;20721;-66
2023/01/03 04:30:32;;;;;;;1.30;0.70;;;;;;;4.25;98.23;101474.63;5093321;28;20056;-66
2023/01/03 04:33:03;;;;;;;6.00;0.90;;;;;;;4.10;99.71;101482.19;5111384;28;20117;-66
2023/01/03 04:35:29;;;;;;;7.38;0.82;;;;;;;3.79;99.82;101476.16;5123156;28;20035;-66
2023/01/03 04:37:54;;;;;;;6.57;1.20;;;;;;;3.77;99.51;101486.06;5108096;28;20054;-66
2023/01/03 04:40:19;;;;;;;2.45;0.90;;;;;;;3.64;99.79;101483.69;5113162;28;20051;-66
2023/01/03 04:45:29;;;;;;;4.20;1.20;;;;;;;3.73;98.30;101482.03;5119874;28;20047;-67
2023/01/03 04:47:54;;;;;;;3.17;0.80;;;;;;;3.76;98.38;101495.06;5108138;28;20027;-66
2023/01/03 04:50:20;;;;;;;3.47;0.82;;;;;;;3.73;99.55;101503.31;5098261;28;20036;-66
2023/01/03 04:52:45;;;;;;;3.78;0.90;;;;;;;3.64;99.44;101486.38;5116341;28;20085;-66
2023/01/03 04:55:12;;;;;;;4.85;0.98;;;;;;;3.76;98.24;101503.03;5113477;28;20054;-66
2023/01/03 04:57:37;;;;;;;3.97;0.95;;;;;;;3.63;98.18;101521.91;5102811;28;20036;-66
2023/01/03 05:00:04;;;;;;;6.82;1.00;;;;;;;3.79;97.66;101520.56;5116278;28;20100;-66
2023/01/03 05:02:30;;;;;;;2.45;0.70;;;;;;;3.69;98.03;101525.88;5112656;28;20039;-66
2023/01/03 05:04:55;;;;;;;3.55;0.90;;;;;;;3.69;97.78;101517.88;5107100;28;20035;-67
2023/01/03 05:07:20;;;;;;;2.70;0.80;;;;;;;4.05;96.05;101527.03;5114740;28;20046;-67
2023/01/03 05:09:46;;;;;;;3.13;1.05;;;;;;;3.87;96.88;101534.84;5101003;28;20034;-65
2023/01/03 05:12:11;;;;;;;3.15;0.80;;;;;;;3.93;97.20;101534.31;5111993;28;20044;-65
2023/01/03 05:14:40;;;;;;;4.40;0.82;;;;;;;3.93;95.79;101496.19;5109499;28;20063;-65
2023/01/03 05:17:08;;;;;;;3.15;0.73;;;;;;;4.27;95.78;101543.72;5103276;28;20422;-66
2023/01/03 05:19:34;;;;;;;5.05;0.80;;;;;;;4.06;95.72;101520.72;5115087;28;20056;-66
2023/01/03 05:27:27;;;;;;;2.78;0.80;;;;;;;3.85;97.20;101551.97;5114588;28;20042;-66
2023/01/03 05:30:13;;;;;;;3.40;0.90;;;;;;;4.06;96.95;101547.34;5101418;28;20398;-65
2023/01/03 05:32:38;;;;;;;3.70;1.20;;;;;;;4.00;97.11;101555.91;5085508;28;20070;-66
2023/01/03 05:35:04;;;;;;;3.50;1.20;;;;;;;3.75;97.45;101533.31;5073302;28;20135;-66
2023/01/03 05:37:29;;;;;;;4.25;0.88;;;;;;;3.92;96.31;101561.91;5063045;28;20055;-66
2023/01/03 05:39:55;;;;;;;7.47;1.02;;;;;;;3.99;97.19;101555.06;5058853;28;20039;-65
2023/01/03 05:42:20;;;;;;;13.45;1.23;;;;;;;4.05;96.81;101558.16;5067590;28;20089;-66
2023/01/03 05:44:46;;;;;;;2.45;0.98;;;;;;;4.12;95.57;101556.63;5085664;28;20032;-66
2023/01/03 05:47:11;;;;;;;3.35;1.00;;;;;;;4.29;95.65;101571.91;5072862;28;20050;-66
2023/01/03 05:49:36;;;;;;;4.57;1.40;;;;;;;4.03;96.51;101571.59;5091782;28;20479;-66
2023/01/03 05:52:02;;;;;;;3.00;0.98;;;;;;;3.82;96.37;101566.38;5079990;28;20040;-66
2023/01/03 05:54:28;;;;;;;4.15;1.85;;;;;;;3.76;95.85;101566.91;5068033;28;20032;-65
2023/01/03 05:56:53;;;;;;;4.35;1.00;;;;;;;3.52;95.29;101540.66;5085483;28;20039;-65
2023/01/03 05:59:21;;;;;;;3.35;0.90;;;;;;;3.97;94.34;101577.47;5060457;28;20037;-66
2023/01/03 06:01:47;;;;;;;4.38;1.05;;;;;;;3.91;94.12;101581.53;5089141;28;20028;-66
2023/01/03 06:04:12;;;;;;;3.33;1.13;;;;;;;3.84;93.75;101595.50;5090548;28;20431;-65
2023/01/03 06:06:38;;;;;;;4.55;1.10;;;;;;;3.70;93.59;101567.47;5087292;28;20146;-65
2023/01/03 06:09:03;;;;;;;3.28;1.00;;;;;;;3.65;94.02;101599.81;5109540;28;20027;-65
2023/01/03 06:11:29;;;;;;;4.40;1.00;;;;;;;3.91;93.42;101605.50;5097106;28;20067;-66
2023/01/03 06:13:54;;;;;;;5.05;1.80;;;;;;;3.82;93.50;101598.34;5111812;28;20054;-65
2023/01/03 06:19:12;;;;;;;5.60;1.60;;;;;;;3.51;93.29;101576.25;5086512;28;20062;-66
2023/01/03 06:21:37;;;;;;;5.55;1.40;;;;;;;3.63;92.75;101617.72;5112906;28;20035;-65
2023/01/03 06:24:03;;;;;;;3.35;1.13;;;;;;;3.66;92.43;101620.13;5101010;28;20046;-69
2023/01/03 06:26:29;;;;;;;4.47;1.08;;;;;;;3.76;92.35;101628.97;5108612;28;20050;-65
2023/01/03 06:28:54;;;;;;;4.60;1.13;;;;;;;3.56;91.92;101627.22;5109621;28;20091;-64
2023/01/03 06:31:20;;;;;;;4.15;1.08;;;;;;;3.56;91.52;101639.69;5101268;28;20490;-65
2023/01/03 06:33:46;;;;;;;4.95;1.45;;;;;;;3.52;91.80;101631.97;5113443;28;20035;-65
2023/01/03 06:36:14;;;;;;;4.68;1.05;;;;;;;3.58;91.09;101635.94;5102324;28;20046;-65
2023/01/03 06:38:40;;;;;;;7.10;1.20;;;;;;;3.62;92.20;101633.84;5107095;28;20020;-65
2023/01/03 06:41:06;;;;;;;2.67;0.90;;;;;;;3.57;91.68;101642.22;5111296;28;20057;-65
2023/01/03 06:43:32;;;;;;;5.05;1.40;;;;;;;3.51;91.13;101638.28;5100068;28;20032;-65
2023/01/03 06:54:23;;;;;;;3.00;1.33;;;;;;;3.67;91.88;101655.56;5110517;28;20081;-66
2023/01/03 06:56:50;;;;;;;4.43;1.00;;;;;;;3.52;91.87;101668.38;5106895;28;20028;-65
2023/01/03 06:59:17;;;;;;;6.82;1.15;;;;;;;3.51;90.89;101653.41;5100352;28;20054;-65
2023/01/03 07:01:43;;;;;;;3.88;1.10;;;;;;;3.38;90.74;101664.25;5112229;28;20054;-65
2023/01/03 07:04:09;;;;;;;3.63;0.95;;;;;;;3.36;90.07;101652.06;5102849;28;20402;-65
2023/01/03 07:06:35;;;;;;;3.85;1.13;;;;;;;3.34;89.57;101661.97;5106158;28;20390;-65
2023/01/03 07:09:00;;;;;;;1.17;0.60;;;;;;;3.58;89.58;101681.16;5110005;28;20227;-65
2023/01/03 07:11:26;;;;;;;2.97;1.02;;;;;;;3.49;90.06;101680.13;5098569;28;20036;-65
2023/01/03 07:13:57;;;;;;;1.90;0.80;;;;;;;3.39;89.59;101654.44;5113206;28;20080;-65
2023/01/03 07:16:24;;;;;;;1.23;0.80;;;;;;;3.72;88.99;101688.78;5104509;28;20470;-65
2023/01/03 07:18:49;;;;;;;2.10;0.55;;;;;;;3.67;89.69;101693.66;5105305;28;20044;-66
2023/01/03 07:21:15;;;;;;;3.33;0.80;;;;;;;3.53;89.92;101688.69;5110749;28;20160;-65
2023/01/03 07:23:41;;;;;;;2.97;1.00;;;;;;;3.50;90.51;101703.09;5099914;28;20384;-65
2023/01/03 07:26:06;;;;;;;2.72;1.13;;;;;;;3.39;90.21;101684.56;5109924;28;20031;-67
2023/01/03 07:28:32;;;;;;;1.70;0.93;;;;;;;3.45;90.59;101728.44;5105754;28;20035;-67
2023/01/03 07:31:03;;;;;;;3.63;0.90;;;;;;;3.32;89.84;101735.75;5119649;28;20040;-65
2023/01/03 07:33:29;;;;;;;4.20;1.15;;;;;;;3.29;89.84;101737.69;5112708;28;20038;-65
2023/01/03 07:36:01;;;;;;;1.83;0.95;;;;;;;3.17;90.08;101737.88;5100134;28;20032;-64
2023/01/03 07:38:27;;;;;;;4.35;0.98;;;;;;;3.12;90.36;101727.63;5108451;28;20111;-67
2023/01/03 07:40:58;;;;;;;1.95;0.90;;;;;;;3.26;89.77;101743.25;5083455;28;20067;-64
2023/01/03 07:43:36;;;;;;;2.22;0.93;;;;;;;3.23;89.83;101748.84;5109866;28;20457;-64
2023/01/03 07:46:13;;;;;;;6.05;0.93;;;;;;;3.33;89.80;101754.25;5088646;28;20027;-66
2023/01/03 07:48:43;;;;;;;5.30;0.95;;;;;;;3.14;90.17;101746.94;5110878;28;20062;-64
2023/01/03 07:51:10;;;;;;;3.08;0.70;;;;;;;3.26;88.77;101753.06;5105468;28;20032;-65
2023/01/03 07:53:36;;;;;;;2.58;0.95;;;;;;;3.45;88.05;101747.06;5116989;28;20024;-65
2023/01/03 07:56:07;;;;;;;4.55;0.80;;;;;;;3.31;88.41;101766.81;5104001;28;20432;-65
2023/01/03 07:58:33;;;;;;;3.72;1.00;;;;;;;3.09;88.49;101773.09;5110087;28;20024;-65
2023/01/03 08:01:04;;;;;;;2.63;1.00;;;;;;;3.17;87.22;101781.25;5113145;28;20375;-65
2023/01/03 08:03:30;;;;;;;1.55;0.60;;;;;;;3.06;86.26;101790.13;5103124;28;20106;-65
2023/01/03 08:05:59;;;;;;;3.20;0.80;;;;;;;3.21;85.44;101789.81;5116195;28;20461;-65
2023/01/03 08:08:24;;;;;;;1.88;0.60;;;;;;;3.46;83.58;101785.97;5099804;28;20096;-65
2023/01/03 08:13:34;;;;;;;1.55;0.50;;;;;;;3.49;84.41;101788.38;5101409;28;20052;-72
2023/01/03 08:16:00;;;;;;;2.53;0.45;;;;;;;3.46;83.67;101791.31;5107193;28;20089;-65
2023/01/03 08:18:26;;;;;;;2.72;0.77;;;;;;;3.21;83.83;101793.34;5110140;28;20056;-65
2023/01/03 08:20:54;;;;;;;3.45;0.40;;;;;;;3.40;83.81;101805.94;5110579;28;20035;-65
2023/01/03 08:23:23;;;;;;;2.30;0.47;;;;;;;3.46;83.86;101800.13;5104519;28;20035;-65
2023/01/03 08:25:49;;;;;;;1.10;0.43;;;;;;;3.54;83.48;101807.44;5116545;28;20432;-65
2023/01/03 08:28:17;;;;;;;2.88;0.65;;;;;;;3.54;82.95;101804.78;5105387;28;20048;-65
2023/01/03 08:30:48;;;;;;;7.82;0.73;;;;;;;3.64;82.26;101816.38;5109471;28;20031;-65
2023/01/03 08:33:16;;;;;;;2.20;0.28;;;;;;;3.60;81.07;101820.25;5114583;28;20054;-65
2023/01/03 08:35:46;;;;;;;3.35;0.50;;;;;;;3.71;81.19;101825.53;5101541;28;20039;-65
2023/01/03 08:38:18;;;;;;;1.85;0.40;;;;;;;3.68;80.21;101820.47;5112248;28;20042;-65
2023/01/03 08:40:44;;;;;;;2.97;0.32;;;;;;;3.80;79.81;101820.41;5108201;28;20028;-66
2023/01/03 08:43:12;;;;;;;1.48;0.50;;;;;;;3.57;80.16;101825.00;5104826;28;20380;-65
2023/01/03 08:45:38;;;;;;;1.88;0.60;;;;;;;3.66;80.36;101825.06;5115661;28;20038;-65
2023/01/03 08:48:05;;;;;;;3.95;0.80;;;;;;;3.76;80.83;101833.13;5102950;28;20032;-65
2023/01/03 08:50:30;;;;;;;4.50;0.60;;;;;;;3.58;79.99;101843.50;5110829;28;20538;-65
2023/01/03 08:52:57;;;;;;;4.47;0.60;;;;;;;3.56;80.01;101844.59;5111384;28;20031;-65
2023/01/03 08:55:22;;;;;;;1.13;0.40;;;;;;;3.53;79.30;101841.22;5101847;28;20411;-65
2023/01/03 08:57:47;;;;;;;2.45;0.50;;;;;;;3.67;79.04;101845.38;5113938;28;20036;-65
2023/01/03 09:00:13;;;;;;;3.47;0.60;;;;;;;3.55;78.33;101848.25;5101023;28;20040;-65
2023/01/03 09:02:39;;;;;;;1.60;0.50;;;;;;;3.53;78.46;101827.91;5108334;28;20062;-65
2023/01/03 09:05:05;;;;;;;3.75;0.80;;;;;;;3.48;77.64;101843.44;5103138;28;20107;-65
2023/01/03 09:07:30;;;;;;;2.00;0.50;;;;;;;3.68;77.12;101862.22;5101352;28;20040;-65
2023/01/03 09:09:56;;;;;;;1.50;0.50;;;;;;;3.40;76.36;101839.69;5115701;28;20016;-64
2023/01/03 09:12:21;;;;;;;3.22;0.65;;;;;;;3.52;75.53;101862.63;5100817;28;20044;-67
2023/01/03 09:14:46;;;;;;;3.20;1.05;;;;;;;3.62;75.42;101868.88;5105173;28;20364;-65
2023/01/03 09:17:12;;;;;;;2.97;0.43;;;;;;;3.61;75.35;101847.69;5111745;28;20423;-66
2023/01/03 09:19:37;;;;;;;1.95;0.47;;;;;;;3.73;75.60;101874.16;5100337;28;20044;-67
2023/01/03 09:22:03;;;;;;;1.27;0.40;;;;;;;3.91;75.07;101876.25;5101924;28;20044;-67
2023/01/03 09:24:28;;;;;;;5.18;0.68;;;;;;;4.00;74.63;101884.28;5102162;28;20040;-64
2023/01/03 09:26:54;;;;;;;2.58;0.50;;;;;;;3.95;74.31;101891.00;5101665;28;20043;-67
2023/01/03 09:29:19;;;;;;;1.23;0.40;;;;;;;4.05;74.34;101894.56;5113384;28;20031;-65
2023/01/03 09:31:45;;;;;;;1.60;0.43;;;;;;;3.97;73.23;101889.03;5100110;28;20028;-65
2023/01/03 09:34:10;;;;;;;1.92;0.50;;;;;;;3.87;73.04;101894.28;5112246;28;20035;-65
2023/01/03 09:36:37;;;;;;;3.40;0.50;;;;;;;3.88;71.61;101903.97;5107211;28;20096;-65
2023/01/03 09:39:03;;;;;;;1.85;0.40;;;;;;;3.89;72.25;101904.81;5103392;28;20031;-64
2023/01/03 09:41:29;;;;;;;1.17;0.40;;;;;;;3.82;72.78;101917.81;5104569;28;20468;-65
2023/01/03 09:44:03;;;;;;;4.07;0.40;;;;;;;3.89;72.41;101928.78;5103984;28;20031;-66
2023/01/03 09:46:31;;;;;;;3.67;0.73;;;;;;;4.09;72.60;101925.28;5097442;28;20024;-64
2023/01/03 09:48:58;;;;;;;3.22;0.50;;;;;;;4.15;72.58;101927.44;5099685;28;20166;-65
2023/01/03 10:05:30;;;;;;;2.65;0.40;;;;;;;4.16;72.01;101942.44;5103052;28;20086;-64
2023/01/03 10:08:34;;;;;;;1.30;0.30;;;;;;;4.13;71.78;101945.38;5082064;28;20024;-64
2023/01/03 10:11:25;;;;;;;0.73;0.43;;;;;;;3.98;72.07;101947.50;5073660;28;20052;-64
2023/01/03 10:14:12;;;;;;;4.43;0.70;;;;;;;4.13;74.18;101961.34;5114414;28;20040;-65
2023/01/03 10:17:00;;;;;;;2.45;0.70;;;;;;;4.00;76.73;101966.00;5093899;28;20100;-65
2023/01/03 10:19:49;;;;;;;2.25;0.55;;;;;;;3.98;76.97;101958.16;5100529;28;20520;-65
2023/01/03 10:22:25;;;;;;;3.65;0.68;;;;;;;4.06;76.84;101954.00;5090171;28;20458;-64
2023/01/03 10:25:03;;;;;;;1.30;0.60;;;;;;;4.18;76.52;101963.63;5109863;28;20476;-65
2023/01/03 10:27:32;;;;;;;1.55;0.52;;;;;;;4.20;77.19;101967.00;5100682;28;20090;-64
2023/01/03 10:30:06;;;;;;;1.52;0.40;;;;;;;4.09;77.13;101969.72;5083528;28;20382;-66
2023/01/03 10:32:34;;;;;;;1.35;0.50;;;;;;;4.01;77.90;101975.72;5106423;28;20085;-65
2023/01/03 10:35:21;;;;;;;3.17;0.60;;;;;;;3.98;76.88;101978.63;5104542;28;20036;-69
2023/01/03 10:37:50;;;;;;;1.92;0.55;;;;;;;4.20;76.53;101989.16;5113567;28;20118;-66
2023/01/03 10:40:16;;;;;;;3.72;0.80;;;;;;;4.42;75.96;101987.38;5108411;28;20020;-65
2023/01/03 10:42:43;;;;;;;1.08;0.50;;;;;;;4.47;76.63;101995.81;5106797;28;20042;-67
2023/01/03 10:45:11;;;;;;;2.88;0.80;;;;;;;4.42;76.25;101998.88;5102867;28;20044;-66
2023/01/03 10:47:37;;;;;;;1.50;0.75;;;;;;;4.37;76.74;101994.88;5113776;28;20512;-66
2023/01/03 10:50:05;;;;;;;2.05;0.80;;;;;;;4.25;77.10;101964.81;5106645;28;20250;-65
2023/01/03 10:52:36;;;;;;;2.00;0.60;;;;;;;4.32;77.44;101994.44;5104225;28;20034;-65
2023/01/03 10:55:11;;;;;;;2.22;0.50;;;;;;;4.21;77.22;101993.53;5106253;28;20039;-65
2023/01/03 10:57:43;;;;;;;1.58;0.50;;;;;;;4.14;77.41;101987.03;5105940;28;20031;-66
2023/01/03 11:00:30;;;;;;;3.22;0.63;;;;;;;4.23;77.11;102004.03;5103477;28;20493;-65
2023/01/03 11:03:08;;;;;;;2.47;0.60;;;;;;;4.26;77.06;102003.78;5108025;28;20076;-67
2023/01/03 11:05:34;;;;;;;2.25;0.77;;;;;;;4.15;77.79;102011.84;5100463;28;20398;-65
2023/01/03 11:08:12;;;;;;;1.83;0.55;;;;;;;3.99;78.11;102010.44;5099618;28;20028;-68
2023/01/03 11:10:48;;;;;;;3.08;0.75;;;;;;;4.05;77.13;102008.25;5098709;28;20067;-65
2023/01/03 11:13:40;;;;;;;1.35;0.60;;;;;;;4.19;77.63;102014.13;5098654;28;20075;-65
2023/01/03 11:16:17;;;;;;;2.25;0.93;;;;;;;4.23;77.41;102020.88;5109321;28;20028;-65
2023/01/03 11:18:57;;;;;;;4.00;0.65;;;;;;;4.32;76.55;102016.59;5112314;28;20036;-65
2023/01/03 11:21:31;;;;;;;2.38;0.60;;;;;;;4.21;76.69;102009.50;5106146;28;20024;-65
2023/01/03 11:24:00;;;;;;;4.72;1.00;;;;;;;4.20;76.60;102021.13;5097790;28;20027;-66
2023/01/03 11:27:10;;;;;;;5.03;1.23;;;;;;;4.32;76.48;102007.78;5102208;28;20063;-67
2023/01/03 11:29:50;;;;;;;3.67;1.63;;;;;;;4.23;76.53;102010.22;5111857;28;20028;-66
2023/01/03 11:32:16;;;;;;;4.43;1.60;;;;;;;4.22;77.07;102013.03;5102999;28;20027;-67
2023/01/03 11:35:03;;;;;;;3.05;1.00;;;;;;;4.21;77.48;102011.34;5107904;28;20063;-66
2023/01/03 11:37:43;;;;;;;2.92;1.00;;;;;;;4.18;77.13;102012.44;5113152;28;20020;-65
2023/01/03 11:40:33;;;;;;;3.35;0.80;;;;;;;4.25;76.90;102018.09;5089902;28;20020;-65
2023/01/03 11:43:15;;;;;;;1.35;0.75;;;;;;;4.39;76.55;102008.94;5108753;28;20394;-66
2023/01/03 11:46:06;;;;;;;2.10;0.65;;;;;;;4.48;76.49;102018.84;5100455;28;20478;-66
2023/01/03 11:48:47;;;;;;;1.45;0.75;;;;;;;4.44;75.58;102014.75;5109454;28;20040;-66
2023/01/03 11:51:54;;;;;;;0.90;0.55;;;;;;;4.30;74.85;102020.38;5112325;28;20084;-88
2023/01/03 11:54:47;;;;;;;1.27;0.60;;;;;;;4.36;74.53;102020.69;5092605;28;20031;-70
2023/01/03 11:57:42;;;;;;;1.52;0.60;;;;;;;4.49;74.41;102015.19;5103107;28;20032;-66
2023/01/03 12:00:21;;;;;;;0.93;0.52;;;;;;;4.53;73.95;102021.09;5091958;28;20036;-67
2023/01/03 12:02:57;;;;;;;1.15;0.60;;;;;;;4.67;74.52;102028.78;5101379;28;20062;-66
2023/01/03 12:05:54;;;;;;;3.50;0.52;;;;;;;4.68;74.61;102027.81;5105596;28;20023;-66
2023/01/03 12:08:31;;;;;;;3.88;0.60;;;;;;;4.65;74.59;102028.06;5089390;28;20058;-71
2023/01/03 12:11:12;;;;;;;2.22;0.50;;;;;;;4.62;74.58;102026.50;5098954;28;20092;-66
2023/01/03 12:14:03;;;;;;;1.08;0.55;;;;;;;4.41;73.75;102029.16;5098148;28;20449;-66
2023/01/03 12:16:35;;;;;;;1.55;0.70;;;;;;;4.24;73.98;101987.94;5109420;28;20020;-66
2023/01/03 12:19:08;;;;;;;1.50;0.70;;;;;;;4.32;74.20;102013.09;5107432;28;20118;-66
2023/01/03 12:21:40;;;;;;;1.75;0.50;;;;;;;4.20;74.76;101983.81;5111728;28;20039;-66
2023/01/03 12:24:06;;;;;;;1.50;0.60;;;;;;;4.30;75.52;102025.69;5103614;28;20071;-67
2023/01/03 12:26:35;;;;;;;1.17;0.60;;;;;;;4.26;75.49;102013.59;5092113;28;20486;-66
2023/01/03 12:29:09;;;;;;;3.85;0.57;;;;;;;4.31;75.75;102025.59;5109568;28;20028;-66
2023/01/03 12:32:15;;;;;;;1.30;0.57;;;;;;;4.30;74.95;102018.53;5100971;28;20106;-66
2023/01/03 12:35:10;;;;;;;1.75;0.50;;;;;;;4.19;74.40;102029.25;5111321;27;20079;-66
2023/01/03 12:37:39;;;;;;;0.80;0.50;;;;;;;4.25;73.52;102028.75;5101108;28;20028;-65
2023/01/03 12:40:22;;;;;;;5.35;0.80;;;;;;;4.21;72.90;102030.81;5114245;28;20477;-66
2023/01/03 12:43:10;;;;;;;2.13;0.50;;;;;;;4.29;73.13;102035.50;5109856;28;20062;-65
2023/01/03 12:46:02;;;;;;;5.28;0.68;;;;;;;4.26;71.95;102029.59;5111337;28;20453;-65
2023/01/03 12:48:30;;;;;;;1.35;0.40;;;;;;;4.30;71.27;102033.69;5089026;28;20448;-66